sensor_id;sensor_type;location;lat;lon;timestamp;P1;durP1;ratioP1;P2;durP2;ratioP2
40807;SDS011;26523;52.504;13.498;2022-11-12T00:01:14;12.05;;;6.38;;
40807;SDS011;26523;52.504;13.498;2022-11-12T00:03:40;15.05;;;6.18;;
40807;SDS011;26523;52.504;13.498;2022-11-12T00:06:06;12.30;;;4.90;;
40807;SDS011;26523;52.504;13.498;2022-11-12T00:08:31;13.45;;;4.90;;
40807;SDS011;26523;52.504;13.498;2022-11-12T00:10:57;16.52;;;5.82;;
40807;SDS011;26523;52.504;13.498;2022-11-12T00:13:23;11.23;;;5.53;;
40807;SDS011;26523;52.504;13.498;2022-11-12T00:15:49;15.80;;;5.82;;
40807;SDS011;26523;52.504;13.498;2022-11-12T00:18:14;16.70;;;4.88;;
40807;SDS011;26523;52.504;13.498;2022-11-12T00:20:40;11.65;;;5.68;;
40807;SDS011;26523;52.504;13.498;2022-11-12T00:23:06;12.98;;;5.25;;
40807;SDS011;26523;52.504;13.498;2022-11-12T00:25:32;13.68;;;5.53;;
40807;SDS011;26523;52.504;13.498;2022-11-12T00:28:02;13.93;;;5.63;;
40807;SDS011;26523;52.504;13.498;2022-11-12T00:30:30;16.08;;;5.13;;
40807;SDS011;26523;52.504;13.498;2022-11-12T00:32:56;13.02;;;6.28;;
40807;SDS011;26523;52.504;13.498;2022-11-12T00:35:21;13.57;;;5.20;;
40807;SDS011;26523;52.504;13.498;2022-11-12T00:37:51;13.02;;;5.15;;
40807;SDS011;26523;52.504;13.498;2022-11-12T00:40:19;10.82;;;5.40;;
40807;SDS011;26523;52.504;13.498;2022-11-12T00:42:45;10.75;;;4.95;;
40807;SDS011;26523;52.504;13.498;2022-11-12T00:45:10;17.08;;;5.68;;
40807;SDS011;26523;52.504;13.498;2022-11-12T00:47:37;12.30;;;5.07;;
40807;SDS011;26523;52.504;13.498;2022-11-12T00:50:03;14.73;;;5.53;;
40807;SDS011;26523;52.504;13.498;2022-11-12T00:52:29;12.00;;;4.40;;
40807;SDS011;26523;52.504;13.498;2022-11-12T00:54:54;14.00;;;5.25;;
40807;SDS011;26523;52.504;13.498;2022-11-12T00:57:20;13.95;;;4.70;;
40807;SDS011;26523;52.504;13.498;2022-11-12T00:59:46;11.40;;;4.82;;
40807;SDS011;26523;52.504;13.498;2022-11-12T01:02:11;11.70;;;5.35;;
40807;SDS011;26523;52.504;13.498;2022-11-12T01:04:37;11.38;;;4.53;;
40807;SDS011;26523;52.504;13.498;2022-11-12T01:07:02;10.88;;;4.90;;
40807;SDS011;26523;52.504;13.498;2022-11-12T01:09:28;13.50;;;4.72;;
40807;SDS011;26523;52.504;13.498;2022-11-12T01:11:54;9.90;;;4.53;;
40807;SDS011;26523;52.504;13.498;2022-11-12T01:14:19;9.77;;;4.65;;
40807;SDS011;26523;52.504;13.498;2022-11-12T01:16:45;10.85;;;5.28;;
40807;SDS011;26523;52.504;13.498;2022-11-12T01:19:11;8.75;;;4.53;;
40807;SDS011;26523;52.504;13.498;2022-11-12T01:21:39;8.95;;;4.20;;
40807;SDS011;26523;52.504;13.498;2022-11-12T01:24:06;12.55;;;4.88;;
40807;SDS011;26523;52.504;13.498;2022-11-12T01:26:32;11.77;;;4.50;;
40807;SDS011;26523;52.504;13.498;2022-11-12T01:28:58;9.32;;;4.03;;
40807;SDS011;26523;52.504;13.498;2022-11-12T01:31:25;10.00;;;5.15;;
40807;SDS011;26523;52.504;13.498;2022-11-12T01:33:53;7.47;;;3.95;;
40807;SDS011;26523;52.504;13.498;2022-11-12T01:36:24;14.30;;;4.88;;
40807;SDS011;26523;52.504;13.498;2022-11-12T01:38:51;12.07;;;4.60;;
40807;SDS011;26523;52.504;13.498;2022-11-12T01:41:25;10.43;;;4.90;;
40807;SDS011;26523;52.504;13.498;2022-11-12T01:44:12;10.35;;;4.38;;
40807;SDS011;26523;52.504;13.498;2022-11-12T01:46:57;12.32;;;4.72;;
40807;SDS011;26523;52.504;13.498;2022-11-12T01:52:20;9.05;;;4.22;;
40807;SDS011;26523;52.504;13.498;2022-11-12T01:54:52;10.30;;;4.03;;
40807;SDS011;26523;52.504;13.498;2022-11-12T01:57:25;9.40;;;4.88;;
40807;SDS011;26523;52.504;13.498;2022-11-12T01:59:55;8.43;;;3.75;;
40807;SDS011;26523;52.504;13.498;2022-11-12T02:02:25;11.63;;;4.40;;
40807;SDS011;26523;52.504;13.498;2022-11-12T02:04:51;15.38;;;4.47;;
40807;SDS011;26523;52.504;13.498;2022-11-12T02:07:18;10.48;;;3.70;;
40807;SDS011;26523;52.504;13.498;2022-11-12T02:09:47;11.57;;;4.25;;
40807;SDS011;26523;52.504;13.498;2022-11-12T02:12:12;10.25;;;3.47;;
40807;SDS011;26523;52.504;13.498;2022-11-12T02:14:58;18.52;;;4.80;;
40807;SDS011;26523;52.504;13.498;2022-11-12T02:17:24;10.85;;;4.40;;
40807;SDS011;26523;52.504;13.498;2022-11-12T02:19:51;11.98;;;3.97;;
40807;SDS011;26523;52.504;13.498;2022-11-12T02:22:17;9.20;;;4.10;;
40807;SDS011;26523;52.504;13.498;2022-11-12T02:24:42;9.02;;;4.20;;
40807;SDS011;26523;52.504;13.498;2022-11-12T02:27:08;11.73;;;4.72;;
40807;SDS011;26523;52.504;13.498;2022-11-12T02:29:35;11.98;;;5.00;;
40807;SDS011;26523;52.504;13.498;2022-11-12T02:32:10;10.65;;;4.53;;
40807;SDS011;26523;52.504;13.498;2022-11-12T02:34:37;12.75;;;4.75;;
40807;SDS011;26523;52.504;13.498;2022-11-12T02:37:03;7.88;;;3.63;;
40807;SDS011;26523;52.504;13.498;2022-11-12T02:39:30;11.27;;;4.68;;
40807;SDS011;26523;52.504;13.498;2022-11-12T02:41:55;9.88;;;3.85;;
40807;SDS011;26523;52.504;13.498;2022-11-12T02:44:21;9.70;;;4.43;;
40807;SDS011;26523;52.504;13.498;2022-11-12T02:46:47;10.10;;;3.83;;
40807;SDS011;26523;52.504;13.498;2022-11-12T02:49:12;8.32;;;4.22;;
40807;SDS011;26523;52.504;13.498;2022-11-12T02:51:38;7.15;;;3.75;;
40807;SDS011;26523;52.504;13.498;2022-11-12T02:54:04;8.80;;;3.75;;
40807;SDS011;26523;52.504;13.498;2022-11-12T02:56:29;12.55;;;4.25;;
40807;SDS011;26523;52.504;13.498;2022-11-12T02:58:55;13.45;;;4.80;;
40807;SDS011;26523;52.504;13.498;2022-11-12T03:01:21;6.57;;;3.95;;
40807;SDS011;26523;52.504;13.498;2022-11-12T03:03:46;16.88;;;4.80;;
40807;SDS011;26523;52.504;13.498;2022-11-12T03:06:12;13.05;;;4.70;;
40807;SDS011;26523;52.504;13.498;2022-11-12T03:08:38;8.20;;;3.95;;
40807;SDS011;26523;52.504;13.498;2022-11-12T03:11:07;13.35;;;4.03;;
40807;SDS011;26523;52.504;13.498;2022-11-12T03:13:34;9.18;;;3.92;;
40807;SDS011;26523;52.504;13.498;2022-11-12T03:16:00;9.98;;;3.60;;
40807;SDS011;26523;52.504;13.498;2022-11-12T03:18:26;7.93;;;3.50;;
40807;SDS011;26523;52.504;13.498;2022-11-12T03:20:52;11.73;;;3.38;;
40807;SDS011;26523;52.504;13.498;2022-11-12T03:23:18;9.13;;;4.13;;
40807;SDS011;26523;52.504;13.498;2022-11-12T03:25:43;9.80;;;4.32;;
40807;SDS011;26523;52.504;13.498;2022-11-12T03:28:10;8.15;;;3.95;;
40807;SDS011;26523;52.504;13.498;2022-11-12T03:30:38;10.30;;;4.20;;
40807;SDS011;26523;52.504;13.498;2022-11-12T03:33:05;8.80;;;3.05;;
40807;SDS011;26523;52.504;13.498;2022-11-12T03:35:32;7.82;;;3.72;;
40807;SDS011;26523;52.504;13.498;2022-11-12T03:37:59;11.07;;;3.78;;
40807;SDS011;26523;52.504;13.498;2022-11-12T03:40:24;7.78;;;3.65;;
40807;SDS011;26523;52.504;13.498;2022-11-12T03:42:51;9.70;;;3.42;;
40807;SDS011;26523;52.504;13.498;2022-11-12T03:45:17;7.18;;;3.03;;
40807;SDS011;26523;52.504;13.498;2022-11-12T03:47:45;7.07;;;3.25;;
40807;SDS011;26523;52.504;13.498;2022-11-12T03:50:12;6.32;;;3.38;;
40807;SDS011;26523;52.504;13.498;2022-11-12T03:52:43;9.77;;;3.30;;
40807;SDS011;26523;52.504;13.498;2022-11-12T03:55:13;6.13;;;3.10;;
40807;SDS011;26523;52.504;13.498;2022-11-12T03:57:40;7.05;;;3.45;;
40807;SDS011;26523;52.504;13.498;2022-11-12T04:00:07;8.38;;;3.28;;
40807;SDS011;26523;52.504;13.498;2022-11-12T04:02:34;7.45;;;3.38;;
40807;SDS011;26523;52.504;13.498;2022-11-12T04:05:00;6.38;;;3.10;;
40807;SDS011;26523;52.504;13.498;2022-11-12T04:07:47;12.10;;;4.20;;
40807;SDS011;26523;52.504;13.498;2022-11-12T04:10:32;7.93;;;3.97;;
40807;SDS011;26523;52.504;13.498;2022-11-12T04:12:57;9.05;;;3.38;;
40807;SDS011;26523;52.504;13.498;2022-11-12T04:15:43;7.78;;;4.05;;
40807;SDS011;26523;52.504;13.498;2022-11-12T04:18:09;8.05;;;3.55;;
40807;SDS011;26523;52.504;13.498;2022-11-12T04:20:53;6.95;;;3.35;;
40807;SDS011;26523;52.504;13.498;2022-11-12T04:23:38;11.65;;;3.05;;
40807;SDS011;26523;52.504;13.498;2022-11-12T04:26:04;4.68;;;2.70;;
40807;SDS011;26523;52.504;13.498;2022-11-12T04:28:48;8.00;;;4.30;;
40807;SDS011;26523;52.504;13.498;2022-11-12T04:31:32;7.13;;;2.38;;
40807;SDS011;26523;52.504;13.498;2022-11-12T04:33:58;8.98;;;3.30;;
40807;SDS011;26523;52.504;13.498;2022-11-12T04:36:44;10.32;;;3.13;;
40807;SDS011;26523;52.504;13.498;2022-11-12T04:39:09;9.30;;;3.33;;
40807;SDS011;26523;52.504;13.498;2022-11-12T04:41:35;11.23;;;3.75;;
40807;SDS011;26523;52.504;13.498;2022-11-12T04:44:21;5.75;;;2.85;;
40807;SDS011;26523;52.504;13.498;2022-11-12T04:47:05;7.90;;;3.42;;
40807;SDS011;26523;52.504;13.498;2022-11-12T04:49:31;9.27;;;3.25;;
40807;SDS011;26523;52.504;13.498;2022-11-12T04:51:56;6.47;;;3.20;;
40807;SDS011;26523;52.504;13.498;2022-11-12T04:54:32;6.72;;;3.13;;
40807;SDS011;26523;52.504;13.498;2022-11-12T04:56:58;9.38;;;3.22;;
40807;SDS011;26523;52.504;13.498;2022-11-12T04:59:24;11.15;;;3.75;;
40807;SDS011;26523;52.504;13.498;2022-11-12T05:01:50;11.13;;;3.55;;
40807;SDS011;26523;52.504;13.498;2022-11-12T05:04:16;5.45;;;2.50;;
40807;SDS011;26523;52.504;13.498;2022-11-12T05:06:42;8.68;;;3.17;;
40807;SDS011;26523;52.504;13.498;2022-11-12T05:09:17;9.80;;;3.88;;
40807;SDS011;26523;52.504;13.498;2022-11-12T05:11:43;6.30;;;2.78;;
40807;SDS011;26523;52.504;13.498;2022-11-12T05:14:08;8.30;;;3.67;;
40807;SDS011;26523;52.504;13.498;2022-11-12T05:16:34;10.88;;;3.97;;
40807;SDS011;26523;52.504;13.498;2022-11-12T05:19:01;6.95;;;3.55;;
40807;SDS011;26523;52.504;13.498;2022-11-12T05:21:26;8.10;;;3.55;;
40807;SDS011;26523;52.504;13.498;2022-11-12T05:24:11;10.15;;;3.47;;
40807;SDS011;26523;52.504;13.498;2022-11-12T05:26:36;7.13;;;3.13;;
40807;SDS011;26523;52.504;13.498;2022-11-12T05:29:02;9.30;;;2.95;;
40807;SDS011;26523;52.504;13.498;2022-11-12T05:31:28;11.73;;;3.42;;
40807;SDS011;26523;52.504;13.498;2022-11-12T05:33:54;6.80;;;2.95;;
40807;SDS011;26523;52.504;13.498;2022-11-12T05:36:19;11.07;;;3.45;;
40807;SDS011;26523;52.504;13.498;2022-11-12T05:38:45;7.00;;;2.95;;
40807;SDS011;26523;52.504;13.498;2022-11-12T05:41:11;8.95;;;3.13;;
40807;SDS011;26523;52.504;13.498;2022-11-12T05:43:38;7.95;;;3.45;;
40807;SDS011;26523;52.504;13.498;2022-11-12T05:46:03;7.35;;;3.03;;
40807;SDS011;26523;52.504;13.498;2022-11-12T05:48:29;7.32;;;3.10;;
40807;SDS011;26523;52.504;13.498;2022-11-12T05:50:55;5.75;;;2.67;;
40807;SDS011;26523;52.504;13.498;2022-11-12T05:53:21;8.40;;;3.20;;
40807;SDS011;26523;52.504;13.498;2022-11-12T05:55:46;9.05;;;3.17;;
40807;SDS011;26523;52.504;13.498;2022-11-12T05:58:12;7.85;;;3.10;;
40807;SDS011;26523;52.504;13.498;2022-11-12T06:00:38;6.72;;;3.42;;
40807;SDS011;26523;52.504;13.498;2022-11-12T06:03:04;6.65;;;3.03;;
40807;SDS011;26523;52.504;13.498;2022-11-12T06:05:31;8.50;;;3.63;;
40807;SDS011;26523;52.504;13.498;2022-11-12T06:07:57;15.90;;;3.08;;
40807;SDS011;26523;52.504;13.498;2022-11-12T06:10:23;8.23;;;3.92;;
40807;SDS011;26523;52.504;13.498;2022-11-12T06:12:49;8.90;;;3.00;;
40807;SDS011;26523;52.504;13.498;2022-11-12T06:15:14;5.65;;;2.85;;
40807;SDS011;26523;52.504;13.498;2022-11-12T06:17:40;7.45;;;3.33;;
40807;SDS011;26523;52.504;13.498;2022-11-12T06:20:06;7.00;;;2.60;;
40807;SDS011;26523;52.504;13.498;2022-11-12T06:22:32;7.47;;;3.50;;
40807;SDS011;26523;52.504;13.498;2022-11-12T06:24:58;5.95;;;3.05;;
40807;SDS011;26523;52.504;13.498;2022-11-12T06:27:24;8.88;;;4.18;;
40807;SDS011;26523;52.504;13.498;2022-11-12T06:29:50;9.02;;;3.25;;
40807;SDS011;26523;52.504;13.498;2022-11-12T06:32:15;9.27;;;2.97;;
40807;SDS011;26523;52.504;13.498;2022-11-12T06:34:41;9.82;;;3.45;;
40807;SDS011;26523;52.504;13.498;2022-11-12T06:37:07;10.77;;;3.38;;
40807;SDS011;26523;52.504;13.498;2022-11-12T06:39:32;6.90;;;3.22;;
40807;SDS011;26523;52.504;13.498;2022-11-12T06:41:58;13.60;;;3.85;;
40807;SDS011;26523;52.504;13.498;2022-11-12T06:44:24;7.07;;;3.42;;
40807;SDS011;26523;52.504;13.498;2022-11-12T06:46:49;7.22;;;3.13;;
40807;SDS011;26523;52.504;13.498;2022-11-12T06:49:15;8.15;;;3.70;;
40807;SDS011;26523;52.504;13.498;2022-11-12T06:51:41;8.23;;;3.72;;
40807;SDS011;26523;52.504;13.498;2022-11-12T06:54:07;10.65;;;3.55;;
40807;SDS011;26523;52.504;13.498;2022-11-12T06:56:32;8.10;;;3.40;;
40807;SDS011;26523;52.504;13.498;2022-11-12T06:58:58;5.38;;;2.70;;
40807;SDS011;26523;52.504;13.498;2022-11-12T07:01:24;7.32;;;3.05;;
40807;SDS011;26523;52.504;13.498;2022-11-12T07:03:50;6.53;;;3.08;;
40807;SDS011;26523;52.504;13.498;2022-11-12T07:06:17;8.52;;;3.33;;
40807;SDS011;26523;52.504;13.498;2022-11-12T07:08:47;14.23;;;4.25;;
40807;SDS011;26523;52.504;13.498;2022-11-12T07:11:15;9.05;;;3.50;;
40807;SDS011;26523;52.504;13.498;2022-11-12T07:13:42;10.60;;;3.38;;
40807;SDS011;26523;52.504;13.498;2022-11-12T07:16:10;8.63;;;2.70;;
40807;SDS011;26523;52.504;13.498;2022-11-12T07:18:37;7.75;;;2.90;;
40807;SDS011;26523;52.504;13.498;2022-11-12T07:21:07;8.90;;;3.30;;
40807;SDS011;26523;52.504;13.498;2022-11-12T07:23:34;8.10;;;3.38;;
40807;SDS011;26523;52.504;13.498;2022-11-12T07:26:01;7.18;;;2.90;;
40807;SDS011;26523;52.504;13.498;2022-11-12T07:28:29;10.52;;;3.30;;
40807;SDS011;26523;52.504;13.498;2022-11-12T07:31:02;7.05;;;3.10;;
40807;SDS011;26523;52.504;13.498;2022-11-12T07:33:30;9.15;;;3.70;;
40807;SDS011;26523;52.504;13.498;2022-11-12T07:35:57;8.30;;;3.33;;
40807;SDS011;26523;52.504;13.498;2022-11-12T07:38:24;7.70;;;3.83;;
40807;SDS011;26523;52.504;13.498;2022-11-12T07:40:50;9.93;;;3.58;;
40807;SDS011;26523;52.504;13.498;2022-11-12T07:43:16;9.63;;;3.95;;
40807;SDS011;26523;52.504;13.498;2022-11-12T07:45:41;10.57;;;2.95;;
40807;SDS011;26523;52.504;13.498;2022-11-12T07:48:07;8.57;;;3.45;;
40807;SDS011;26523;52.504;13.498;2022-11-12T07:50:33;7.55;;;2.95;;
40807;SDS011;26523;52.504;13.498;2022-11-12T07:52:58;8.95;;;3.10;;
40807;SDS011;26523;52.504;13.498;2022-11-12T07:55:24;11.93;;;4.03;;
40807;SDS011;26523;52.504;13.498;2022-11-12T07:57:50;6.63;;;3.42;;
40807;SDS011;26523;52.504;13.498;2022-11-12T08:00:17;10.60;;;3.30;;
40807;SDS011;26523;52.504;13.498;2022-11-12T08:02:43;9.52;;;3.55;;
40807;SDS011;26523;52.504;13.498;2022-11-12T08:05:09;8.30;;;3.45;;
40807;SDS011;26523;52.504;13.498;2022-11-12T08:07:35;9.27;;;3.70;;
40807;SDS011;26523;52.504;13.498;2022-11-12T08:10:01;7.55;;;3.72;;
40807;SDS011;26523;52.504;13.498;2022-11-12T08:12:27;13.68;;;3.97;;
40807;SDS011;26523;52.504;13.498;2022-11-12T08:14:53;8.10;;;3.58;;
40807;SDS011;26523;52.504;13.498;2022-11-12T08:17:19;7.78;;;3.20;;
40807;SDS011;26523;52.504;13.498;2022-11-12T08:19:44;9.43;;;4.03;;
40807;SDS011;26523;52.504;13.498;2022-11-12T08:22:10;9.57;;;3.33;;
40807;SDS011;26523;52.504;13.498;2022-11-12T08:24:36;6.43;;;3.47;;
40807;SDS011;26523;52.504;13.498;2022-11-12T08:27:01;8.00;;;3.50;;
40807;SDS011;26523;52.504;13.498;2022-11-12T08:29:27;8.07;;;3.40;;
40807;SDS011;26523;52.504;13.498;2022-11-12T08:31:53;10.55;;;4.28;;
40807;SDS011;26523;52.504;13.498;2022-11-12T08:34:18;9.30;;;4.07;;
40807;SDS011;26523;52.504;13.498;2022-11-12T08:36:44;8.15;;;3.72;;
40807;SDS011;26523;52.504;13.498;2022-11-12T08:39:10;9.52;;;4.10;;
40807;SDS011;26523;52.504;13.498;2022-11-12T08:41:35;7.57;;;3.63;;
40807;SDS011;26523;52.504;13.498;2022-11-12T08:44:01;10.48;;;4.32;;
40807;SDS011;26523;52.504;13.498;2022-11-12T08:46:27;7.50;;;3.85;;
40807;SDS011;26523;52.504;13.498;2022-11-12T08:48:52;10.82;;;3.30;;
40807;SDS011;26523;52.504;13.498;2022-11-12T08:51:18;10.15;;;3.65;;
40807;SDS011;26523;52.504;13.498;2022-11-12T08:53:43;7.03;;;3.78;;
40807;SDS011;26523;52.504;13.498;2022-11-12T08:56:09;10.68;;;4.50;;
40807;SDS011;26523;52.504;13.498;2022-11-12T08:58:35;12.02;;;4.32;;
40807;SDS011;26523;52.504;13.498;2022-11-12T09:01:05;12.48;;;4.68;;
40807;SDS011;26523;52.504;13.498;2022-11-12T09:03:31;14.52;;;5.13;;
40807;SDS011;26523;52.504;13.498;2022-11-12T09:06:00;10.40;;;4.15;;
40807;SDS011;26523;52.504;13.498;2022-11-12T09:08:27;12.98;;;4.32;;
40807;SDS011;26523;52.504;13.498;2022-11-12T09:10:53;7.70;;;3.70;;
40807;SDS011;26523;52.504;13.498;2022-11-12T09:13:18;8.15;;;3.78;;
40807;SDS011;26523;52.504;13.498;2022-11-12T09:15:44;11.13;;;4.43;;
40807;SDS011;26523;52.504;13.498;2022-11-12T09:18:12;7.90;;;3.95;;
40807;SDS011;26523;52.504;13.498;2022-11-12T09:20:40;9.52;;;4.65;;
40807;SDS011;26523;52.504;13.498;2022-11-12T09:23:09;14.57;;;4.63;;
40807;SDS011;26523;52.504;13.498;2022-11-12T09:25:37;7.10;;;3.75;;
40807;SDS011;26523;52.504;13.498;2022-11-12T09:28:07;14.13;;;5.15;;
40807;SDS011;26523;52.504;13.498;2022-11-12T09:30:35;13.18;;;4.85;;
40807;SDS011;26523;52.504;13.498;2022-11-12T09:33:02;10.25;;;4.40;;
40807;SDS011;26523;52.504;13.498;2022-11-12T09:35:28;12.77;;;4.95;;
40807;SDS011;26523;52.504;13.498;2022-11-12T09:37:54;17.63;;;4.55;;
40807;SDS011;26523;52.504;13.498;2022-11-12T09:40:21;9.07;;;4.60;;
40807;SDS011;26523;52.504;13.498;2022-11-12T09:42:56;12.32;;;4.43;;
40807;SDS011;26523;52.504;13.498;2022-11-12T09:45:26;11.23;;;4.30;;
40807;SDS011;26523;52.504;13.498;2022-11-12T09:47:56;16.20;;;5.03;;
40807;SDS011;26523;52.504;13.498;2022-11-12T09:50:27;8.45;;;4.97;;
40807;SDS011;26523;52.504;13.498;2022-11-12T09:55:44;17.95;;;6.22;;
40807;SDS011;26523;52.504;13.498;2022-11-12T09:58:13;9.13;;;4.65;;
40807;SDS011;26523;52.504;13.498;2022-11-12T10:00:42;10.73;;;5.20;;
40807;SDS011;26523;52.504;13.498;2022-11-12T10:06:23;13.60;;;4.88;;
40807;SDS011;26523;52.504;13.498;2022-11-12T10:09:15;14.98;;;4.82;;
40807;SDS011;26523;52.504;13.498;2022-11-12T10:11:54;14.23;;;5.38;;
40807;SDS011;26523;52.504;13.498;2022-11-12T10:20:42;15.35;;;5.88;;
40807;SDS011;26523;52.504;13.498;2022-11-12T10:25:56;13.93;;;5.90;;
40807;SDS011;26523;52.504;13.498;2022-11-12T10:31:09;13.02;;;5.18;;
40807;SDS011;26523;52.504;13.498;2022-11-12T10:33:38;14.45;;;6.22;;
40807;SDS011;26523;52.504;13.498;2022-11-12T10:36:12;14.63;;;5.82;;
40807;SDS011;26523;52.504;13.498;2022-11-12T10:38:52;14.63;;;6.18;;
40807;SDS011;26523;52.504;13.498;2022-11-12T10:41:23;12.75;;;5.47;;
40807;SDS011;26523;52.504;13.498;2022-11-12T10:43:56;12.30;;;5.05;;
40807;SDS011;26523;52.504;13.498;2022-11-12T10:46:23;12.25;;;5.03;;
40807;SDS011;26523;52.504;13.498;2022-11-12T10:48:55;11.90;;;5.47;;
40807;SDS011;26523;52.504;13.498;2022-11-12T10:51:23;12.35;;;5.47;;
40807;SDS011;26523;52.504;13.498;2022-11-12T10:53:52;17.00;;;6.32;;
40807;SDS011;26523;52.504;13.498;2022-11-12T10:56:30;18.17;;;5.72;;
40807;SDS011;26523;52.504;13.498;2022-11-12T11:01:37;11.57;;;4.72;;
40807;SDS011;26523;52.504;13.498;2022-11-12T11:04:03;15.57;;;5.60;;
40807;SDS011;26523;52.504;13.498;2022-11-12T11:06:39;14.73;;;5.07;;
40807;SDS011;26523;52.504;13.498;2022-11-12T11:09:13;12.25;;;5.18;;
40807;SDS011;26523;52.504;13.498;2022-11-12T11:11:48;17.70;;;5.47;;
40807;SDS011;26523;52.504;13.498;2022-11-12T11:16:48;12.30;;;5.15;;
40807;SDS011;26523;52.504;13.498;2022-11-12T11:19:14;15.82;;;5.28;;
40807;SDS011;26523;52.504;13.498;2022-11-12T11:46:49;11.05;;;4.43;;
40807;SDS011;26523;52.504;13.498;2022-11-12T11:52:36;14.93;;;4.22;;
40807;SDS011;26523;52.504;13.498;2022-11-12T11:58:11;18.02;;;5.60;;
40807;SDS011;26523;52.504;13.498;2022-11-12T12:03:34;8.93;;;3.75;;
40807;SDS011;26523;52.504;13.498;2022-11-12T12:06:22;10.38;;;4.28;;
40807;SDS011;26523;52.504;13.498;2022-11-12T12:08:57;12.18;;;5.18;;
40807;SDS011;26523;52.504;13.498;2022-11-12T12:20:04;17.88;;;4.47;;
40807;SDS011;26523;52.504;13.498;2022-11-12T12:22:44;11.77;;;4.03;;
40807;SDS011;26523;52.504;13.498;2022-11-12T12:25:15;10.13;;;4.05;;
40807;SDS011;26523;52.504;13.498;2022-11-12T12:27:52;11.10;;;4.22;;
40807;SDS011;26523;52.504;13.498;2022-11-12T12:30:46;11.00;;;4.70;;
40807;SDS011;26523;52.504;13.498;2022-11-12T12:36:23;9.85;;;4.97;;
40807;SDS011;26523;52.504;13.498;2022-11-12T12:44:11;15.60;;;4.45;;
40807;SDS011;26523;52.504;13.498;2022-11-12T12:46:41;13.18;;;4.63;;
40807;SDS011;26523;52.504;13.498;2022-11-12T12:49:13;11.67;;;4.37;;
40807;SDS011;26523;52.504;13.498;2022-11-12T12:51:45;9.15;;;4.25;;
40807;SDS011;26523;52.504;13.498;2022-11-12T12:56:59;12.23;;;4.18;;
40807;SDS011;26523;52.504;13.498;2022-11-12T12:59:25;10.85;;;4.72;;
40807;SDS011;26523;52.504;13.498;2022-11-12T13:02:00;9.95;;;4.53;;
40807;SDS011;26523;52.504;13.498;2022-11-12T13:07:20;11.18;;;5.05;;
40807;SDS011;26523;52.504;13.498;2022-11-12T13:13:22;11.70;;;4.40;;
40807;SDS011;26523;52.504;13.498;2022-11-12T13:15:56;13.70;;;4.50;;
40807;SDS011;26523;52.504;13.498;2022-11-12T13:23:46;10.57;;;3.55;;
40807;SDS011;26523;52.504;13.498;2022-11-12T13:29:17;7.47;;;3.72;;
40807;SDS011;26523;52.504;13.498;2022-11-12T13:31:45;11.95;;;3.72;;
40807;SDS011;26523;52.504;13.498;2022-11-12T13:34:21;10.48;;;3.80;;
40807;SDS011;26523;52.504;13.498;2022-11-12T13:36:55;8.48;;;3.47;;
40807;SDS011;26523;52.504;13.498;2022-11-12T13:39:25;7.22;;;3.58;;
40807;SDS011;26523;52.504;13.498;2022-11-12T13:41:56;11.20;;;4.20;;
40807;SDS011;26523;52.504;13.498;2022-11-12T13:44:41;9.77;;;4.25;;
40807;SDS011;26523;52.504;13.498;2022-11-12T13:47:16;7.80;;;4.07;;
40807;SDS011;26523;52.504;13.498;2022-11-12T13:49:45;16.70;;;4.13;;
40807;SDS011;26523;52.504;13.498;2022-11-12T13:52:13;12.65;;;5.05;;
40807;SDS011;26523;52.504;13.498;2022-11-12T13:54:40;10.70;;;4.60;;
40807;SDS011;26523;52.504;13.498;2022-11-12T13:59:45;11.00;;;3.42;;
40807;SDS011;26523;52.504;13.498;2022-11-12T14:02:21;9.15;;;3.75;;
40807;SDS011;26523;52.504;13.498;2022-11-12T14:04:50;10.63;;;4.07;;
40807;SDS011;26523;52.504;13.498;2022-11-12T14:18:06;14.15;;;4.00;;
40807;SDS011;26523;52.504;13.498;2022-11-12T14:20:38;11.50;;;3.72;;
40807;SDS011;26523;52.504;13.498;2022-11-12T14:23:10;6.90;;;3.35;;
40807;SDS011;26523;52.504;13.498;2022-11-12T14:25:44;11.48;;;3.92;;
40807;SDS011;26523;52.504;13.498;2022-11-12T14:30:52;10.70;;;3.55;;
40807;SDS011;26523;52.504;13.498;2022-11-12T14:33:19;10.63;;;4.10;;
40807;SDS011;26523;52.504;13.498;2022-11-12T14:35:47;9.05;;;3.85;;
40807;SDS011;26523;52.504;13.498;2022-11-12T14:40:44;14.38;;;3.92;;
40807;SDS011;26523;52.504;13.498;2022-11-12T14:43:44;11.95;;;3.80;;
40807;SDS011;26523;52.504;13.498;2022-11-12T14:46:25;8.15;;;3.33;;
40807;SDS011;26523;52.504;13.498;2022-11-12T14:48:55;6.95;;;2.67;;
40807;SDS011;26523;52.504;13.498;2022-11-12T14:51:28;10.57;;;4.03;;
40807;SDS011;26523;52.504;13.498;2022-11-12T14:54:02;8.90;;;3.90;;
40807;SDS011;26523;52.504;13.498;2022-11-12T14:56:44;15.43;;;4.20;;
40807;SDS011;26523;52.504;13.498;2022-11-12T14:59:13;10.18;;;4.20;;
40807;SDS011;26523;52.504;13.498;2022-11-12T15:01:40;8.93;;;4.63;;
40807;SDS011;26523;52.504;13.498;2022-11-12T15:04:41;11.43;;;4.05;;
40807;SDS011;26523;52.504;13.498;2022-11-12T15:09:58;9.38;;;2.95;;
40807;SDS011;26523;52.504;13.498;2022-11-12T15:12:27;10.77;;;3.60;;
40807;SDS011;26523;52.504;13.498;2022-11-12T15:15:05;12.48;;;4.10;;
40807;SDS011;26523;52.504;13.498;2022-11-12T15:17:41;14.45;;;4.72;;
40807;SDS011;26523;52.504;13.498;2022-11-12T15:20:11;8.70;;;4.00;;
40807;SDS011;26523;52.504;13.498;2022-11-12T15:22:39;13.93;;;5.32;;
40807;SDS011;26523;52.504;13.498;2022-11-12T15:25:09;8.27;;;4.20;;
40807;SDS011;26523;52.504;13.498;2022-11-12T15:32:43;8.93;;;3.55;;
40807;SDS011;26523;52.504;13.498;2022-11-12T15:35:19;11.73;;;3.75;;
40807;SDS011;26523;52.504;13.498;2022-11-12T15:37:56;11.52;;;3.72;;
40807;SDS011;26523;52.504;13.498;2022-11-12T15:40:27;17.50;;;6.75;;
40807;SDS011;26523;52.504;13.498;2022-11-12T15:42:53;13.88;;;5.38;;
40807;SDS011;26523;52.504;13.498;2022-11-12T15:45:20;18.48;;;6.28;;
40807;SDS011;26523;52.504;13.498;2022-11-12T15:47:46;16.77;;;5.40;;
40807;SDS011;26523;52.504;13.498;2022-11-12T15:52:41;10.38;;;4.43;;
40807;SDS011;26523;52.504;13.498;2022-11-12T15:55:07;10.00;;;3.85;;
40807;SDS011;26523;52.504;13.498;2022-11-12T15:57:37;12.00;;;5.13;;
40807;SDS011;26523;52.504;13.498;2022-11-12T16:00:24;12.55;;;6.20;;
40807;SDS011;26523;52.504;13.498;2022-11-12T16:03:09;16.73;;;7.00;;
40807;SDS011;26523;52.504;13.498;2022-11-12T16:05:39;20.45;;;7.00;;
40807;SDS011;26523;52.504;13.498;2022-11-12T16:08:05;17.35;;;5.80;;
40807;SDS011;26523;52.504;13.498;2022-11-12T16:10:30;12.25;;;5.63;;
40807;SDS011;26523;52.504;13.498;2022-11-12T16:12:57;12.38;;;4.78;;
40807;SDS011;26523;52.504;13.498;2022-11-12T16:15:24;13.98;;;4.15;;
40807;SDS011;26523;52.504;13.498;2022-11-12T16:17:51;13.48;;;4.40;;
40807;SDS011;26523;52.504;13.498;2022-11-12T16:20:18;21.63;;;5.65;;
40807;SDS011;26523;52.504;13.498;2022-11-12T16:22:47;21.00;;;5.05;;
40807;SDS011;26523;52.504;13.498;2022-11-12T16:25:13;11.43;;;6.15;;
40807;SDS011;26523;52.504;13.498;2022-11-12T16:27:39;17.42;;;5.82;;
40807;SDS011;26523;52.504;13.498;2022-11-12T16:30:05;20.30;;;6.35;;
40807;SDS011;26523;52.504;13.498;2022-11-12T16:32:38;16.38;;;6.00;;
40807;SDS011;26523;52.504;13.498;2022-11-12T16:35:04;18.15;;;6.95;;
40807;SDS011;26523;52.504;13.498;2022-11-12T16:37:30;19.27;;;6.50;;
40807;SDS011;26523;52.504;13.498;2022-11-12T16:39:56;21.75;;;6.72;;
40807;SDS011;26523;52.504;13.498;2022-11-12T16:42:22;12.63;;;5.43;;